sensor_id;sensor_type;location;lat;lon;timestamp;temperature;humidity
8684;DHT22;4379;59.744;18.206;2023-02-28T00:01:07;1.70;99.90
8684;DHT22;4379;59.744;18.206;2023-02-28T00:03:35;1.60;99.90
8684;DHT22;4379;59.744;18.206;2023-02-28T00:06:06;1.60;99.90
8684;DHT22;4379;59.744;18.206;2023-02-28T00:08:34;1.50;99.90
8684;DHT22;4379;59.744;18.206;2023-02-28T00:11:03;1.50;99.90
8684;DHT22;4379;59.744;18.206;2023-02-28T00:13:30;1.60;99.90
8684;DHT22;4379;59.744;18.206;2023-02-28T00:16:02;1.60;99.90
8684;DHT22;4379;59.744;18.206;2023-02-28T00:18:30;1.50;99.90
8684;DHT22;4379;59.744;18.206;2023-02-28T00:20:58;1.50;99.90
8684;DHT22;4379;59.744;18.206;2023-02-28T00:23:26;1.50;99.90
8684;DHT22;4379;59.744;18.206;2023-02-28T00:25:54;1.60;99.90
8684;DHT22;4379;59.744;18.206;2023-02-28T00:28:21;1.60;99.90
8684;DHT22;4379;59.744;18.206;2023-02-28T00:30:48;1.50;99.90
8684;DHT22;4379;59.744;18.206;2023-02-28T00:33:16;1.60;99.90
8684;DHT22;4379;59.744;18.206;2023-02-28T00:35:43;1.60;99.90
8684;DHT22;4379;59.744;18.206;2023-02-28T00:38:13;1.60;99.90
8684;DHT22;4379;59.744;18.206;2023-02-28T00:40:41;1.70;99.90
8684;DHT22;4379;59.744;18.206;2023-02-28T00:43:08;1.70;99.90
8684;DHT22;4379;59.744;18.206;2023-02-28T00:45:35;1.70;99.90
8684;DHT22;4379;59.744;18.206;2023-02-28T00:48:02;1.70;99.90
8684;DHT22;4379;59.744;18.206;2023-02-28T00:50:29;1.70;99.90
8684;DHT22;4379;59.744;18.206;2023-02-28T00:52:56;1.70;99.90
8684;DHT22;4379;59.744;18.206;2023-02-28T00:55:23;1.70;99.90
8684;DHT22;4379;59.744;18.206;2023-02-28T00:57:51;1.80;99.90
8684;DHT22;4379;59.744;18.206;2023-02-28T01:00:18;1.90;99.90
8684;DHT22;4379;59.744;18.206;2023-02-28T01:02:45;2.10;99.90
8684;DHT22;4379;59.744;18.206;2023-02-28T01:05:12;2.20;99.90
8684;DHT22;4379;59.744;18.206;2023-02-28T01:07:39;2.20;99.90
8684;DHT22;4379;59.744;18.206;2023-02-28T01:10:07;2.30;99.90
8684;DHT22;4379;59.744;18.206;2023-02-28T01:12:34;2.30;99.90
8684;DHT22;4379;59.744;18.206;2023-02-28T01:15:02;2.40;99.90
8684;DHT22;4379;59.744;18.206;2023-02-28T01:17:29;2.40;99.90
8684;DHT22;4379;59.744;18.206;2023-02-28T01:19:56;2.30;99.90
8684;DHT22;4379;59.744;18.206;2023-02-28T01:22:23;2.40;99.90
8684;DHT22;4379;59.744;18.206;2023-02-28T01:24:50;2.40;99.90
8684;DHT22;4379;59.744;18.206;2023-02-28T01:27:17;2.30;99.90
8684;DHT22;4379;59.744;18.206;2023-02-28T01:29:44;2.30;99.90
8684;DHT22;4379;59.744;18.206;2023-02-28T01:32:12;2.30;99.90
8684;DHT22;4379;59.744;18.206;2023-02-28T01:34:39;2.20;99.90
8684;DHT22;4379;59.744;18.206;2023-02-28T01:37:06;2.20;99.90
8684;DHT22;4379;59.744;18.206;2023-02-28T01:39:33;2.10;99.90
8684;DHT22;4379;59.744;18.206;2023-02-28T01:42:00;2.10;99.90
8684;DHT22;4379;59.744;18.206;2023-02-28T01:45:14;2.10;99.90
8684;DHT22;4379;59.744;18.206;2023-02-28T01:47:44;2.00;99.90
8684;DHT22;4379;59.744;18.206;2023-02-28T01:50:19;2.00;99.90
8684;DHT22;4379;59.744;18.206;2023-02-28T01:52:48;2.00;99.90
8684;DHT22;4379;59.744;18.206;2023-02-28T01:55:18;2.00;99.90
8684;DHT22;4379;59.744;18.206;2023-02-28T01:57:50;1.90;99.90
8684;DHT22;4379;59.744;18.206;2023-02-28T02:00:21;2.00;99.90
8684;DHT22;4379;59.744;18.206;2023-02-28T02:02:52;2.00;99.90
8684;DHT22;4379;59.744;18.206;2023-02-28T02:05:26;1.90;99.90
8684;DHT22;4379;59.744;18.206;2023-02-28T02:08:02;1.90;99.90
8684;DHT22;4379;59.744;18.206;2023-02-28T02:10:36;1.90;99.90
8684;DHT22;4379;59.744;18.206;2023-02-28T02:21:47;1.70;99.90
8684;DHT22;4379;59.744;18.206;2023-02-28T02:24:49;1.50;99.90
8684;DHT22;4379;59.744;18.206;2023-02-28T02:30:08;1.60;99.90
8684;DHT22;4379;59.744;18.206;2023-02-28T02:35:56;1.50;99.90
8684;DHT22;4379;59.744;18.206;2023-02-28T02:46:45;1.40;99.90
8684;DHT22;4379;59.744;18.206;2023-02-28T02:49:22;1.50;99.90
8684;DHT22;4379;59.744;18.206;2023-02-28T02:51:52;1.50;99.90
8684;DHT22;4379;59.744;18.206;2023-02-28T02:54:27;1.60;99.90
8684;DHT22;4379;59.744;18.206;2023-02-28T02:57:01;1.60;99.90
8684;DHT22;4379;59.744;18.206;2023-02-28T02:59:30;1.50;99.90
8684;DHT22;4379;59.744;18.206;2023-02-28T03:02:01;1.60;99.90
8684;DHT22;4379;59.744;18.206;2023-02-28T03:04:43;1.70;99.90
8684;DHT22;4379;59.744;18.206;2023-02-28T03:07:12;1.60;99.90
8684;DHT22;4379;59.744;18.206;2023-02-28T03:09:39;1.50;99.90
8684;DHT22;4379;59.744;18.206;2023-02-28T03:12:10;1.60;99.90
8684;DHT22;4379;59.744;18.206;2023-02-28T03:15:00;1.50;99.90
8684;DHT22;4379;59.744;18.206;2023-02-28T03:17:51;1.50;99.90
8684;DHT22;4379;59.744;18.206;2023-02-28T03:20:54;1.60;99.90
8684;DHT22;4379;59.744;18.206;2023-02-28T03:26:21;1.50;99.90
8684;DHT22;4379;59.744;18.206;2023-02-28T03:31:57;1.50;99.90
8684;DHT22;4379;59.744;18.206;2023-02-28T03:34:33;1.40;99.90
8684;DHT22;4379;59.744;18.206;2023-02-28T03:37:13;1.40;99.90
8684;DHT22;4379;59.744;18.206;2023-02-28T03:39:47;1.30;99.90
8684;DHT22;4379;59.744;18.206;2023-02-28T03:42:22;1.20;99.90
8684;DHT22;4379;59.744;18.206;2023-02-28T03:45:08;1.10;99.90
8684;DHT22;4379;59.744;18.206;2023-02-28T03:47:39;0.90;99.90
8684;DHT22;4379;59.744;18.206;2023-02-28T03:50:21;0.80;99.90
8684;DHT22;4379;59.744;18.206;2023-02-28T03:53:00;0.80;99.90
8684;DHT22;4379;59.744;18.206;2023-02-28T03:55:37;0.70;99.90
8684;DHT22;4379;59.744;18.206;2023-02-28T04:00:54;0.70;99.90
8684;DHT22;4379;59.744;18.206;2023-02-28T04:03:22;0.60;99.90
8684;DHT22;4379;59.744;18.206;2023-02-28T04:05:54;0.50;99.90
8684;DHT22;4379;59.744;18.206;2023-02-28T04:08:22;0.50;99.90
8684;DHT22;4379;59.744;18.206;2023-02-28T04:10:56;0.40;99.90
8684;DHT22;4379;59.744;18.206;2023-02-28T04:13:25;0.40;99.90
8684;DHT22;4379;59.744;18.206;2023-02-28T04:15:52;0.30;99.90
8684;DHT22;4379;59.744;18.206;2023-02-28T04:18:19;0.30;99.90
8684;DHT22;4379;59.744;18.206;2023-02-28T04:20:46;0.20;99.90
8684;DHT22;4379;59.744;18.206;2023-02-28T04:23:13;0.20;99.90
8684;DHT22;4379;59.744;18.206;2023-02-28T04:25:40;0.20;99.90
8684;DHT22;4379;59.744;18.206;2023-02-28T04:28:08;0.10;99.90
8684;DHT22;4379;59.744;18.206;2023-02-28T04:30:35;0.00;99.90
8684;DHT22;4379;59.744;18.206;2023-02-28T04:33:02;0.00;99.90
8684;DHT22;4379;59.744;18.206;2023-02-28T04:35:29;0.00;99.90
8684;DHT22;4379;59.744;18.206;2023-02-28T04:37:57;-0.10;99.90
8684;DHT22;4379;59.744;18.206;2023-02-28T04:40:24;-0.20;99.90
8684;DHT22;4379;59.744;18.206;2023-02-28T04:42:51;-0.20;99.90
8684;DHT22;4379;59.744;18.206;2023-02-28T04:45:18;-0.30;99.90
8684;DHT22;4379;59.744;18.206;2023-02-28T04:47:45;-0.40;99.90
8684;DHT22;4379;59.744;18.206;2023-02-28T04:50:12;-0.50;99.90
8684;DHT22;4379;59.744;18.206;2023-02-28T04:52:39;-0.40;99.90
8684;DHT22;4379;59.744;18.206;2023-02-28T04:55:07;-0.30;99.90
8684;DHT22;4379;59.744;18.206;2023-02-28T04:57:34;-0.40;99.90
8684;DHT22;4379;59.744;18.206;2023-02-28T05:00:01;-0.30;99.90
8684;DHT22;4379;59.744;18.206;2023-02-28T05:02:34;-0.30;99.90
8684;DHT22;4379;59.744;18.206;2023-02-28T05:05:02;-0.30;99.90
8684;DHT22;4379;59.744;18.206;2023-02-28T05:07:29;-0.30;99.90
8684;DHT22;4379;59.744;18.206;2023-02-28T05:09:56;-0.30;99.90
8684;DHT22;4379;59.744;18.206;2023-02-28T05:12:23;-0.30;99.90
8684;DHT22;4379;59.744;18.206;2023-02-28T05:14:50;-0.30;99.90
8684;DHT22;4379;59.744;18.206;2023-02-28T05:17:18;-0.40;99.90
8684;DHT22;4379;59.744;18.206;2023-02-28T05:19:45;-0.40;99.90
8684;DHT22;4379;59.744;18.206;2023-02-28T05:22:14;-0.40;99.90
8684;DHT22;4379;59.744;18.206;2023-02-28T05:24:43;-0.50;99.90
8684;DHT22;4379;59.744;18.206;2023-02-28T05:27:11;-0.50;99.90
8684;DHT22;4379;59.744;18.206;2023-02-28T05:29:38;-0.50;99.90
8684;DHT22;4379;59.744;18.206;2023-02-28T05:32:10;-0.50;99.90
8684;DHT22;4379;59.744;18.206;2023-02-28T05:34:39;-0.50;99.90
8684;DHT22;4379;59.744;18.206;2023-02-28T05:37:12;-0.50;99.90
8684;DHT22;4379;59.744;18.206;2023-02-28T05:39:41;-0.50;99.90
8684;DHT22;4379;59.744;18.206;2023-02-28T05:42:08;-0.50;99.90
8684;DHT22;4379;59.744;18.206;2023-02-28T05:44:36;-0.50;99.90
8684;DHT22;4379;59.744;18.206;2023-02-28T05:47:03;-0.50;99.90
8684;DHT22;4379;59.744;18.206;2023-02-28T05:49:30;-0.50;99.90
8684;DHT22;4379;59.744;18.206;2023-02-28T05:51:57;-0.50;99.90
8684;DHT22;4379;59.744;18.206;2023-02-28T05:54:24;-0.60;99.90
8684;DHT22;4379;59.744;18.206;2023-02-28T05:56:51;-0.60;99.90
8684;DHT22;4379;59.744;18.206;2023-02-28T05:59:19;-0.60;99.90
8684;DHT22;4379;59.744;18.206;2023-02-28T06:01:46;-0.60;99.90
8684;DHT22;4379;59.744;18.206;2023-02-28T06:04:19;-0.60;99.90
8684;DHT22;4379;59.744;18.206;2023-02-28T06:06:57;-0.60;99.90
8684;DHT22;4379;59.744;18.206;2023-02-28T06:09:24;-0.60;99.90
8684;DHT22;4379;59.744;18.206;2023-02-28T06:11:51;-0.40;99.90
8684;DHT22;4379;59.744;18.206;2023-02-28T06:14:19;-0.40;99.90
8684;DHT22;4379;59.744;18.206;2023-02-28T06:16:46;-0.30;99.90
8684;DHT22;4379;59.744;18.206;2023-02-28T06:19:14;-0.20;99.90
8684;DHT22;4379;59.744;18.206;2023-02-28T06:21:42;0.00;99.90
8684;DHT22;4379;59.744;18.206;2023-02-28T06:24:10;0.10;99.90
8684;DHT22;4379;59.744;18.206;2023-02-28T06:26:37;0.20;99.90
8684;DHT22;4379;59.744;18.206;2023-02-28T06:29:04;0.30;99.90
8684;DHT22;4379;59.744;18.206;2023-02-28T06:31:31;0.40;99.90
8684;DHT22;4379;59.744;18.206;2023-02-28T06:33:59;0.60;99.90
8684;DHT22;4379;59.744;18.206;2023-02-28T06:36:26;0.60;99.90
8684;DHT22;4379;59.744;18.206;2023-02-28T06:38:53;0.60;99.90
8684;DHT22;4379;59.744;18.206;2023-02-28T06:41:24;0.80;99.90
8684;DHT22;4379;59.744;18.206;2023-02-28T06:43:53;0.90;99.90
8684;DHT22;4379;59.744;18.206;2023-02-28T06:46:20;0.90;99.90
8684;DHT22;4379;59.744;18.206;2023-02-28T06:48:48;0.90;99.90
8684;DHT22;4379;59.744;18.206;2023-02-28T06:51:19;1.00;99.90
8684;DHT22;4379;59.744;18.206;2023-02-28T06:53:49;1.00;99.90
8684;DHT22;4379;59.744;18.206;2023-02-28T06:56:17;1.00;99.90
8684;DHT22;4379;59.744;18.206;2023-02-28T06:58:49;1.10;99.90
8684;DHT22;4379;59.744;18.206;2023-02-28T07:01:17;1.00;99.90
8684;DHT22;4379;59.744;18.206;2023-02-28T07:03:46;1.10;99.90
8684;DHT22;4379;59.744;18.206;2023-02-28T07:06:13;1.00;99.90
8684;DHT22;4379;59.744;18.206;2023-02-28T07:08:40;1.10;99.90
8684;DHT22;4379;59.744;18.206;2023-02-28T07:11:08;1.10;99.90
8684;DHT22;4379;59.744;18.206;2023-02-28T07:13:35;1.10;99.90
8684;DHT22;4379;59.744;18.206;2023-02-28T07:16:04;1.10;99.90
8684;DHT22;4379;59.744;18.206;2023-02-28T07:18:32;1.10;99.90
8684;DHT22;4379;59.744;18.206;2023-02-28T07:21:02;1.10;99.90
8684;DHT22;4379;59.744;18.206;2023-02-28T07:23:30;1.20;99.90
8684;DHT22;4379;59.744;18.206;2023-02-28T07:25:57;1.30;99.90
8684;DHT22;4379;59.744;18.206;2023-02-28T07:28:24;1.50;99.90
8684;DHT22;4379;59.744;18.206;2023-02-28T07:30:52;1.50;99.90
8684;DHT22;4379;59.744;18.206;2023-02-28T07:33:20;1.60;99.90
8684;DHT22;4379;59.744;18.206;2023-02-28T07:35:47;1.60;99.90
8684;DHT22;4379;59.744;18.206;2023-02-28T07:38:15;1.70;99.90
8684;DHT22;4379;59.744;18.206;2023-02-28T07:40:42;2.10;99.90
8684;DHT22;4379;59.744;18.206;2023-02-28T07:43:09;2.20;99.90
8684;DHT22;4379;59.744;18.206;2023-02-28T07:45:37;2.20;99.90
8684;DHT22;4379;59.744;18.206;2023-02-28T07:48:04;2.40;99.90
8684;DHT22;4379;59.744;18.206;2023-02-28T07:50:31;2.70;99.90
8684;DHT22;4379;59.744;18.206;2023-02-28T07:52:59;2.70;99.90
8684;DHT22;4379;59.744;18.206;2023-02-28T07:55:26;3.00;99.90
8684;DHT22;4379;59.744;18.206;2023-02-28T07:57:54;3.50;99.90
8684;DHT22;4379;59.744;18.206;2023-02-28T08:00:21;3.80;99.90
8684;DHT22;4379;59.744;18.206;2023-02-28T08:02:49;4.60;99.90
8684;DHT22;4379;59.744;18.206;2023-02-28T08:05:16;5.00;99.90
8684;DHT22;4379;59.744;18.206;2023-02-28T08:07:49;5.20;99.90
8684;DHT22;4379;59.744;18.206;2023-02-28T08:10:16;5.80;99.90
8684;DHT22;4379;59.744;18.206;2023-02-28T08:12:44;6.20;99.90
8684;DHT22;4379;59.744;18.206;2023-02-28T08:15:11;5.90;99.90
8684;DHT22;4379;59.744;18.206;2023-02-28T08:17:38;5.30;99.90
8684;DHT22;4379;59.744;18.206;2023-02-28T08:20:06;5.20;99.90
8684;DHT22;4379;59.744;18.206;2023-02-28T08:22:33;4.80;99.90
8684;DHT22;4379;59.744;18.206;2023-02-28T08:25:00;4.60;99.90
8684;DHT22;4379;59.744;18.206;2023-02-28T08:27:27;4.40;99.90
8684;DHT22;4379;59.744;18.206;2023-02-28T08:29:55;4.30;99.90
8684;DHT22;4379;59.744;18.206;2023-02-28T08:32:23;4.10;99.90
8684;DHT22;4379;59.744;18.206;2023-02-28T08:34:56;4.10;99.90
8684;DHT22;4379;59.744;18.206;2023-02-28T08:37:24;3.90;99.90
8684;DHT22;4379;59.744;18.206;2023-02-28T08:39:51;4.30;99.90
8684;DHT22;4379;59.744;18.206;2023-02-28T08:42:22;4.40;99.90
8684;DHT22;4379;59.744;18.206;2023-02-28T08:44:49;4.60;99.90
8684;DHT22;4379;59.744;18.206;2023-02-28T08:47:17;5.10;99.90
8684;DHT22;4379;59.744;18.206;2023-02-28T08:49:44;5.70;99.90
8684;DHT22;4379;59.744;18.206;2023-02-28T08:52:11;6.20;99.90
8684;DHT22;4379;59.744;18.206;2023-02-28T08:54:38;5.90;99.90
8684;DHT22;4379;59.744;18.206;2023-02-28T08:57:05;6.30;99.90
8684;DHT22;4379;59.744;18.206;2023-02-28T08:59:32;6.30;99.90
8684;DHT22;4379;59.744;18.206;2023-02-28T09:02:00;6.40;99.90
8684;DHT22;4379;59.744;18.206;2023-02-28T09:04:27;6.90;99.90
8684;DHT22;4379;59.744;18.206;2023-02-28T09:06:57;7.00;99.90
8684;DHT22;4379;59.744;18.206;2023-02-28T09:09:24;7.00;99.90
8684;DHT22;4379;59.744;18.206;2023-02-28T09:11:51;7.00;99.90
8684;DHT22;4379;59.744;18.206;2023-02-28T09:14:19;7.10;99.90
8684;DHT22;4379;59.744;18.206;2023-02-28T09:16:46;6.90;99.90
8684;DHT22;4379;59.744;18.206;2023-02-28T09:19:14;6.60;99.90
8684;DHT22;4379;59.744;18.206;2023-02-28T09:21:41;6.80;99.90
8684;DHT22;4379;59.744;18.206;2023-02-28T09:24:08;6.60;99.90
8684;DHT22;4379;59.744;18.206;2023-02-28T09:26:37;6.50;99.90
8684;DHT22;4379;59.744;18.206;2023-02-28T09:29:13;6.80;99.90
8684;DHT22;4379;59.744;18.206;2023-02-28T09:31:41;6.80;99.90
8684;DHT22;4379;59.744;18.206;2023-02-28T09:34:08;6.80;99.90
8684;DHT22;4379;59.744;18.206;2023-02-28T09:36:35;7.20;99.90
8684;DHT22;4379;59.744;18.206;2023-02-28T09:39:12;7.00;99.90
8684;DHT22;4379;59.744;18.206;2023-02-28T09:41:44;7.50;99.90
8684;DHT22;4379;59.744;18.206;2023-02-28T09:44:37;7.40;99.90
8684;DHT22;4379;59.744;18.206;2023-02-28T09:49:49;6.90;99.90
8684;DHT22;4379;59.744;18.206;2023-02-28T09:52:23;7.10;99.90
8684;DHT22;4379;59.744;18.206;2023-02-28T09:54:52;7.20;99.90
8684;DHT22;4379;59.744;18.206;2023-02-28T09:57:33;7.00;99.90
8684;DHT22;4379;59.744;18.206;2023-02-28T10:00:07;7.30;99.90
8684;DHT22;4379;59.744;18.206;2023-02-28T10:05:18;7.30;99.90
8684;DHT22;4379;59.744;18.206;2023-02-28T10:12:54;7.30;99.90
8684;DHT22;4379;59.744;18.206;2023-02-28T10:15:25;7.50;99.90
8684;DHT22;4379;59.744;18.206;2023-02-28T10:18:05;7.40;99.90
8684;DHT22;4379;59.744;18.206;2023-02-28T10:20:38;7.10;99.90
8684;DHT22;4379;59.744;18.206;2023-02-28T10:23:12;7.00;99.90
8684;DHT22;4379;59.744;18.206;2023-02-28T10:25:44;7.30;99.90
8684;DHT22;4379;59.744;18.206;2023-02-28T10:28:16;7.40;99.90
8684;DHT22;4379;59.744;18.206;2023-02-28T10:30:50;7.60;99.90
8684;DHT22;4379;59.744;18.206;2023-02-28T10:33:31;7.70;99.90
8684;DHT22;4379;59.744;18.206;2023-02-28T10:35:59;7.80;99.90
8684;DHT22;4379;59.744;18.206;2023-02-28T10:38:35;7.80;99.90
8684;DHT22;4379;59.744;18.206;2023-02-28T10:41:11;7.90;99.90
8684;DHT22;4379;59.744;18.206;2023-02-28T10:43:40;7.80;99.90
8684;DHT22;4379;59.744;18.206;2023-02-28T10:48:40;8.00;99.90
8684;DHT22;4379;59.744;18.206;2023-02-28T10:51:12;8.10;99.90
8684;DHT22;4379;59.744;18.206;2023-02-28T10:53:47;8.30;99.90
8684;DHT22;4379;59.744;18.206;2023-02-28T10:56:27;8.30;99.90
8684;DHT22;4379;59.744;18.206;2023-02-28T11:04:02;8.50;99.90
8684;DHT22;4379;59.744;18.206;2023-02-28T11:06:34;8.70;99.90
8684;DHT22;4379;59.744;18.206;2023-02-28T11:09:14;8.60;99.90
8684;DHT22;4379;59.744;18.206;2023-02-28T11:11:46;8.40;99.90
8684;DHT22;4379;59.744;18.206;2023-02-28T11:16:47;8.00;99.90
8684;DHT22;4379;59.744;18.206;2023-02-28T11:19:27;7.90;99.90
8684;DHT22;4379;59.744;18.206;2023-02-28T11:21:58;7.80;99.90
8684;DHT22;4379;59.744;18.206;2023-02-28T11:24:35;7.80;99.90
8684;DHT22;4379;59.744;18.206;2023-02-28T11:27:03;7.60;99.90
8684;DHT22;4379;59.744;18.206;2023-02-28T11:29:32;7.50;99.90
8684;DHT22;4379;59.744;18.206;2023-02-28T11:32:13;7.50;99.90
8684;DHT22;4379;59.744;18.206;2023-02-28T11:34:43;7.70;99.90
8684;DHT22;4379;59.744;18.206;2023-02-28T11:37:16;7.90;99.90
8684;DHT22;4379;59.744;18.206;2023-02-28T11:39:45;8.00;99.90
8684;DHT22;4379;59.744;18.206;2023-02-28T11:47:40;8.40;99.90
8684;DHT22;4379;59.744;18.206;2023-02-28T11:53:06;8.90;99.90
8684;DHT22;4379;59.744;18.206;2023-02-28T11:56:28;9.00;99.90
8684;DHT22;4379;59.744;18.206;2023-02-28T12:08:03;9.00;99.90
8684;DHT22;4379;59.744;18.206;2023-02-28T12:13:41;9.30;99.90
8684;DHT22;4379;59.744;18.206;2023-02-28T12:16:38;9.10;99.90
8684;DHT22;4379;59.744;18.206;2023-02-28T12:22:16;9.30;99.90
8684;DHT22;4379;59.744;18.206;2023-02-28T12:24:54;9.30;99.90
8684;DHT22;4379;59.744;18.206;2023-02-28T12:27:29;9.20;99.90
8684;DHT22;4379;59.744;18.206;2023-02-28T12:32:40;8.80;99.90
8684;DHT22;4379;59.744;18.206;2023-02-28T12:38:04;8.90;99.90
8684;DHT22;4379;59.744;18.206;2023-02-28T12:40:42;8.90;99.90
8684;DHT22;4379;59.744;18.206;2023-02-28T12:43:12;9.10;99.90
8684;DHT22;4379;59.744;18.206;2023-02-28T12:45:53;9.00;99.90
8684;DHT22;4379;59.744;18.206;2023-02-28T12:48:42;9.10;99.90
8684;DHT22;4379;59.744;18.206;2023-02-28T12:51:10;8.90;99.90
8684;DHT22;4379;59.744;18.206;2023-02-28T12:53:57;8.90;99.90
8684;DHT22;4379;59.744;18.206;2023-02-28T13:11:05;8.70;99.90
8684;DHT22;4379;59.744;18.206;2023-02-28T13:13:46;8.70;99.90
8684;DHT22;4379;59.744;18.206;2023-02-28T13:16:14;8.80;99.90
8684;DHT22;4379;59.744;18.206;2023-02-28T13:18:46;8.70;99.90
8684;DHT22;4379;59.744;18.206;2023-02-28T13:21:26;8.60;99.90
8684;DHT22;4379;59.744;18.206;2023-02-28T13:24:04;8.50;99.90
8684;DHT22;4379;59.744;18.206;2023-02-28T13:34:37;8.30;99.90
8684;DHT22;4379;59.744;18.206;2023-02-28T13:39:55;8.10;99.90
8684;DHT22;4379;59.744;18.206;2023-02-28T13:42:34;8.00;99.90
8684;DHT22;4379;59.744;18.206;2023-02-28T13:47:41;7.90;99.90
8684;DHT22;4379;59.744;18.206;2023-02-28T14:03:45;8.50;99.90
8684;DHT22;4379;59.744;18.206;2023-02-28T14:09:00;8.50;99.90
8684;DHT22;4379;59.744;18.206;2023-02-28T14:11:33;8.30;99.90
8684;DHT22;4379;59.744;18.206;2023-02-28T14:14:02;8.20;99.90
8684;DHT22;4379;59.744;18.206;2023-02-28T14:16:47;8.30;99.90
8684;DHT22;4379;59.744;18.206;2023-02-28T14:19:29;8.20;99.90
8684;DHT22;4379;59.744;18.206;2023-02-28T14:27:46;8.20;99.90
8684;DHT22;4379;59.744;18.206;2023-02-28T14:33:26;8.00;99.90
8684;DHT22;4379;59.744;18.206;2023-02-28T14:36:07;8.00;99.90
8684;DHT22;4379;59.744;18.206;2023-02-28T14:38:44;8.10;99.90
8684;DHT22;4379;59.744;18.206;2023-02-28T14:41:23;8.00;99.90
8684;DHT22;4379;59.744;18.206;2023-02-28T14:43:56;7.90;99.90
8684;DHT22;4379;59.744;18.206;2023-02-28T14:46:35;7.90;99.90
8684;DHT22;4379;59.744;18.206;2023-02-28T14:49:05;7.70;99.90
8684;DHT22;4379;59.744;18.206;2023-02-28T14:51:35;7.70;99.90
8684;DHT22;4379;59.744;18.206;2023-02-28T14:54:03;7.70;99.90
8684;DHT22;4379;59.744;18.206;2023-02-28T14:56:38;7.80;99.90
8684;DHT22;4379;59.744;18.206;2023-02-28T14:59:31;7.80;99.90
8684;DHT22;4379;59.744;18.206;2023-02-28T15:04:53;7.20;99.90
8684;DHT22;4379;59.744;18.206;2023-02-28T15:07:21;7.20;99.90
8684;DHT22;4379;59.744;18.206;2023-02-28T15:12:52;6.60;99.90
8684;DHT22;4379;59.744;18.206;2023-02-28T15:15:21;6.60;99.90
8684;DHT22;4379;59.744;18.206;2023-02-28T15:18:06;6.50;99.90
8684;DHT22;4379;59.744;18.206;2023-02-28T15:20:35;6.50;99.90
8684;DHT22;4379;59.744;18.206;2023-02-28T15:23:05;6.50;99.90
8684;DHT22;4379;59.744;18.206;2023-02-28T15:25:34;6.50;99.90
8684;DHT22;4379;59.744;18.206;2023-02-28T15:28:01;6.40;99.90
8684;DHT22;4379;59.744;18.206;2023-02-28T15:30:30;6.30;99.90
8684;DHT22;4379;59.744;18.206;2023-02-28T15:33:15;6.30;99.90
8684;DHT22;4379;59.744;18.206;2023-02-28T15:35:45;6.10;99.90
8684;DHT22;4379;59.744;18.206;2023-02-28T15:38:34;6.10;99.90
8684;DHT22;4379;59.744;18.206;2023-02-28T15:41:02;6.10;99.90
8684;DHT22;4379;59.744;18.206;2023-02-28T15:43:37;6.00;99.90
8684;DHT22;4379;59.744;18.206;2023-02-28T15:46:12;5.80;99.90
8684;DHT22;4379;59.744;18.206;2023-02-28T15:48:45;5.70;99.90
8684;DHT22;4379;59.744;18.206;2023-02-28T15:51:29;5.40;99.90
8684;DHT22;4379;59.744;18.206;2023-02-28T15:54:01;5.20;99.90
8684;DHT22;4379;59.744;18.206;2023-02-28T15:56:35;5.00;99.90
8684;DHT22;4379;59.744;18.206;2023-02-28T15:59:07;5.00;99.90
8684;DHT22;4379;59.744;18.206;2023-02-28T16:01:40;4.90;99.90
8684;DHT22;4379;59.744;18.206;2023-02-28T16:04:25;4.80;99.90
8684;DHT22;4379;59.744;18.206;2023-02-28T16:09:27;4.80;99.90
8684;DHT22;4379;59.744;18.206;2023-02-28T16:11:55;4.90;99.90
8684;DHT22;4379;59.744;18.206;2023-02-28T16:14:27;4.80;99.90
8684;DHT22;4379;59.744;18.206;2023-02-28T16:17:05;4.80;99.90
8684;DHT22;4379;59.744;18.206;2023-02-28T16:19:33;4.80;99.90
8684;DHT22;4379;59.744;18.206;2023-02-28T16:22:01;4.80;99.90
8684;DHT22;4379;59.744;18.206;2023-02-28T16:24:29;4.60;99.90
8684;DHT22;4379;59.744;18.206;2023-02-28T16:26:57;4.60;99.90
8684;DHT22;4379;59.744;18.206;2023-02-28T16:29:34;4.70;99.90
8684;DHT22;4379;59.744;18.206;2023-02-28T16:32:05;4.70;99.90
8684;DHT22;4379;59.744;18.206;2023-02-28T16:34:32;4.80;99.90
8684;DHT22;4379;59.744;18.206;2023-02-28T16:36:59;4.90;99.90
8684;DHT22;4379;59.744;18.206;2023-02-28T16:39:27;4.90;99.90
8684;DHT22;4379;59.744;18.206;2023-02-28T16:41:54;5.00;99.90
8684;DHT22;4379;59.744;18.206;2023-02-28T16:44:30;5.00;99.90
8684;DHT22;4379;59.744;18.206;2023-02-28T16:47:03;4.90;99.90
8684;DHT22;4379;59.744;18.206;2023-02-28T16:49:30;4.90;99.90
8684;DHT22;4379;59.744;18.206;2023-02-28T16:51:58;4.70;99.90
8684;DHT22;4379;59.744;18.206;2023-02-28T16:54:25;4.60;99.90
8684;DHT22;4379;59.744;18.206;2023-02-28T16:56:53;4.40;99.90
8684;DHT22;4379;59.744;18.206;2023-02-28T16:59:26;4.30;99.90
8684;DHT22;4379;59.744;18.206;2023-02-28T17:01:54;4.20;99.90
8684;DHT22;4379;59.744;18.206;2023-02-28T17:04:27;4.10;99.90
8684;DHT22;4379;59.744;18.206;2023-02-28T17:06:54;4.00;99.90
8684;DHT22;4379;59.744;18.206;2023-02-28T17:09:22;4.00;99.90
8684;DHT22;4379;59.744;18.206;2023-02-28T17:12:06;4.00;99.90
8684;DHT22;4379;59.744;18.206;2023-02-28T17:14:33;3.90;99.90
8684;DHT22;4379;59.744;18.206;2023-02-28T17:17:00;3.80;99.90
8684;DHT22;4379;59.744;18.206;2023-02-28T17:19:27;3.90;99.90
8684;DHT22;4379;59.744;18.206;2023-02-28T17:21:55;4.00;99.90
8684;DHT22;4379;59.744;18.206;2023-02-28T17:24:22;3.90;99.90
8684;DHT22;4379;59.744;18.206;2023-02-28T17:26:57;3.90;99.90
8684;DHT22;4379;59.744;18.206;2023-02-28T17:29:24;3.70;99.90
8684;DHT22;4379;59.744;18.206;2023-02-28T17:31:52;3.60;99.90
8684;DHT22;4379;59.744;18.206;2023-02-28T17:34:19;3.50;99.90
8684;DHT22;4379;59.744;18.206;2023-02-28T17:36:49;3.40;99.90
8684;DHT22;4379;59.744;18.206;2023-02-28T17:39:18;3.30;99.90
8684;DHT22;4379;59.744;18.206;2023-02-28T17:41:53;3.10;99.90
8684;DHT22;4379;59.744;18.206;2023-02-28T17:44:21;3.10;99.90
8684;DHT22;4379;59.744;18.206;2023-02-28T17:46:50;3.10;99.90
8684;DHT22;4379;59.744;18.206;2023-02-28T17:49:18;3.00;99.90
8684;DHT22;4379;59.744;18.206;2023-02-28T17:51:46;2.80;99.90
8684;DHT22;4379;59.744;18.206;2023-02-28T17:54:13;2.80;99.90
8684;DHT22;4379;59.744;18.206;2023-02-28T17:56:42;2.70;99.90
8684;DHT22;4379;59.744;18.206;2023-02-28T17:59:10;2.70;99.90
8684;DHT22;4379;59.744;18.206;2023-02-28T18:01:39;2.50;99.90
8684;DHT22;4379;59.744;18.206;2023-02-28T18:04:06;2.40;99.90
8684;DHT22;4379;59.744;18.206;2023-02-28T18:06:44;2.30;99.90
8684;DHT22;4379;59.744;18.206;2023-02-28T18:09:21;2.20;99.90
8684;DHT22;4379;59.744;18.206;2023-02-28T18:11:50;2.30;99.90
8684;DHT22;4379;59.744;18.206;2023-02-28T18:14:20;2.10;99.90
8684;DHT22;4379;59.744;18.206;2023-02-28T18:16:47;2.00;99.90
8684;DHT22;4379;59.744;18.206;2023-02-28T18:19:15;1.90;99.90
8684;DHT22;4379;59.744;18.206;2023-02-28T18:21:45;1.90;99.90
8684;DHT22;4379;59.744;18.206;2023-02-28T18:24:14;1.90;99.90
8684;DHT22;4379;59.744;18.206;2023-02-28T18:26:42;1.70;99.90
8684;DHT22;4379;59.744;18.206;2023-02-28T18:29:23;1.50;99.90
8684;DHT22;4379;59.744;18.206;2023-02-28T18:31:52;1.40;99.90
8684;DHT22;4379;59.744;18.206;2023-02-28T18:34:20;1.30;99.90
8684;DHT22;4379;59.744;18.206;2023-02-28T18:36:48;1.30;99.90
8684;DHT22;4379;59.744;18.206;2023-02-28T18:39:17;1.20;99.90
8684;DHT22;4379;59.744;18.206;2023-02-28T18:41:44;1.20;99.90
8684;DHT22;4379;59.744;18.206;2023-02-28T18:44:12;1.20;99.90
8684;DHT22;4379;59.744;18.206;2023-02-28T18:46:47;1.30;99.90